sensor_id;sensor_type;location;lat;lon;timestamp;pressure;altitude;pressure_sealevel;temperature;humidity
550;BME280;20066;48.764;9.176;2023-04-04T00:00:37;99019.09;;;3.25;50.71
550;BME280;20066;48.764;9.176;2023-04-04T00:03:05;99017.88;;;3.22;50.93
550;BME280;20066;48.764;9.176;2023-04-04T00:05:33;99023.19;;;3.22;51.52
550;BME280;20066;48.764;9.176;2023-04-04T00:08:02;99007.97;;;3.48;50.21
550;BME280;20066;48.764;9.176;2023-04-04T00:10:31;99005.47;;;3.61;50.53
550;BME280;20066;48.764;9.176;2023-04-04T00:12:59;99006.72;;;4.01;49.10
550;BME280;20066;48.764;9.176;2023-04-04T00:15:26;99002.44;;;3.71;49.61
550;BME280;20066;48.764;9.176;2023-04-04T00:17:54;98998.63;;;2.65;52.45
550;BME280;20066;48.764;9.176;2023-04-04T00:20:22;99003.47;;;3.32;50.92
550;BME280;20066;48.764;9.176;2023-04-04T00:22:50;98993.41;;;3.54;50.52
550;BME280;20066;48.764;9.176;2023-04-04T00:25:18;99001.16;;;2.96;52.16
550;BME280;20066;48.764;9.176;2023-04-04T00:27:47;98991.31;;;3.77;49.94
550;BME280;20066;48.764;9.176;2023-04-04T00:30:15;99004.13;;;3.29;51.31
550;BME280;20066;48.764;9.176;2023-04-04T00:32:43;98994.56;;;3.36;50.64
550;BME280;20066;48.764;9.176;2023-04-04T00:35:11;98989.25;;;2.76;52.06
550;BME280;20066;48.764;9.176;2023-04-04T00:37:39;98988.97;;;2.95;51.68
550;BME280;20066;48.764;9.176;2023-04-04T00:40:10;98985.69;;;2.81;52.12
550;BME280;20066;48.764;9.176;2023-04-04T00:42:38;98989.56;;;2.66;52.89
550;BME280;20066;48.764;9.176;2023-04-04T00:45:07;98989.25;;;3.19;51.76
550;BME280;20066;48.764;9.176;2023-04-04T00:47:36;98987.09;;;3.12;50.62
550;BME280;20066;48.764;9.176;2023-04-04T00:50:06;98981.94;;;2.99;51.00
550;BME280;20066;48.764;9.176;2023-04-04T00:52:34;98981.34;;;2.19;53.32
550;BME280;20066;48.764;9.176;2023-04-04T00:55:03;98971.28;;;2.56;52.72
550;BME280;20066;48.764;9.176;2023-04-04T00:57:32;98973.50;;;2.88;52.10
550;BME280;20066;48.764;9.176;2023-04-04T01:00:01;98969.41;;;3.25;51.70
550;BME280;20066;48.764;9.176;2023-04-04T01:02:32;98974.22;;;3.32;50.45
550;BME280;20066;48.764;9.176;2023-04-04T01:05:01;98966.91;;;2.77;51.64
550;BME280;20066;48.764;9.176;2023-04-04T01:07:30;98977.03;;;2.41;53.25
550;BME280;20066;48.764;9.176;2023-04-04T01:09:59;98971.16;;;3.04;51.43
550;BME280;20066;48.764;9.176;2023-04-04T01:12:27;98965.66;;;2.92;51.78
550;BME280;20066;48.764;9.176;2023-04-04T01:14:55;98972.66;;;3.31;51.18
550;BME280;20066;48.764;9.176;2023-04-04T01:17:23;98964.56;;;3.01;51.38
550;BME280;20066;48.764;9.176;2023-04-04T01:19:59;98964.13;;;2.91;51.82
550;BME280;20066;48.764;9.176;2023-04-04T01:22:29;98963.16;;;3.12;51.78
550;BME280;20066;48.764;9.176;2023-04-04T01:24:58;98967.69;;;2.95;51.60
550;BME280;20066;48.764;9.176;2023-04-04T01:27:28;98961.78;;;2.72;52.22
550;BME280;20066;48.764;9.176;2023-04-04T01:29:57;98968.97;;;2.89;52.60
550;BME280;20066;48.764;9.176;2023-04-04T01:32:28;98962.56;;;3.62;50.38
550;BME280;20066;48.764;9.176;2023-04-04T01:35:02;98968.38;;;3.64;50.02
550;BME280;20066;48.764;9.176;2023-04-04T01:37:35;98965.91;;;3.50;50.12
550;BME280;20066;48.764;9.176;2023-04-04T01:40:08;98958.00;;;3.16;51.39
550;BME280;20066;48.764;9.176;2023-04-04T01:42:40;98961.13;;;3.18;50.02
550;BME280;20066;48.764;9.176;2023-04-04T01:45:09;98955.91;;;3.85;49.02
550;BME280;20066;48.764;9.176;2023-04-04T01:47:38;98956.72;;;3.31;50.06
550;BME280;20066;48.764;9.176;2023-04-04T01:50:07;98966.94;;;3.75;49.45
550;BME280;20066;48.764;9.176;2023-04-04T01:52:36;98965.56;;;3.61;50.06
550;BME280;20066;48.764;9.176;2023-04-04T01:55:04;98953.59;;;3.84;49.85
550;BME280;20066;48.764;9.176;2023-04-04T01:57:34;98962.28;;;4.02;49.30
550;BME280;20066;48.764;9.176;2023-04-04T02:00:04;98956.94;;;4.31;48.30
550;BME280;20066;48.764;9.176;2023-04-04T02:02:33;98960.25;;;4.28;48.15
550;BME280;20066;48.764;9.176;2023-04-04T02:05:00;98957.72;;;4.02;47.64
550;BME280;20066;48.764;9.176;2023-04-04T02:07:29;98961.09;;;4.20;48.05
550;BME280;20066;48.764;9.176;2023-04-04T02:09:57;98954.25;;;4.10;47.08
550;BME280;20066;48.764;9.176;2023-04-04T02:12:25;98958.47;;;3.73;48.53
550;BME280;20066;48.764;9.176;2023-04-04T02:14:52;98959.28;;;2.67;51.97
550;BME280;20066;48.764;9.176;2023-04-04T02:17:22;98959.81;;;2.29;51.84
550;BME280;20066;48.764;9.176;2023-04-04T02:19:51;98955.34;;;2.64;53.19
550;BME280;20066;48.764;9.176;2023-04-04T02:22:19;98953.75;;;2.37;52.80
550;BME280;20066;48.764;9.176;2023-04-04T02:24:47;98956.47;;;2.81;51.66
550;BME280;20066;48.764;9.176;2023-04-04T02:27:14;98946.31;;;2.91;51.46
550;BME280;20066;48.764;9.176;2023-04-04T02:29:42;98954.03;;;2.10;53.07
550;BME280;20066;48.764;9.176;2023-04-04T02:32:10;98951.28;;;2.50;52.21
550;BME280;20066;48.764;9.176;2023-04-04T02:34:39;98958.63;;;2.44;52.68
550;BME280;20066;48.764;9.176;2023-04-04T02:37:07;98964.41;;;1.89;54.12
550;BME280;20066;48.764;9.176;2023-04-04T02:39:35;98961.81;;;2.15;53.40
550;BME280;20066;48.764;9.176;2023-04-04T02:42:03;98955.75;;;1.67;54.61
550;BME280;20066;48.764;9.176;2023-04-04T02:44:31;98954.94;;;1.97;54.42
550;BME280;20066;48.764;9.176;2023-04-04T02:46:59;98954.28;;;1.60;54.38
550;BME280;20066;48.764;9.176;2023-04-04T02:49:27;98956.69;;;1.40;55.19
550;BME280;20066;48.764;9.176;2023-04-04T02:51:56;98948.31;;;1.46;55.32
550;BME280;20066;48.764;9.176;2023-04-04T02:54:24;98955.00;;;1.83;53.61
550;BME280;20066;48.764;9.176;2023-04-04T02:56:52;98954.50;;;1.73;54.76
550;BME280;20066;48.764;9.176;2023-04-04T02:59:20;98947.00;;;2.14;54.01
550;BME280;20066;48.764;9.176;2023-04-04T03:01:47;98950.84;;;1.60;54.86
550;BME280;20066;48.764;9.176;2023-04-04T03:04:15;98947.78;;;2.06;54.33
550;BME280;20066;48.764;9.176;2023-04-04T03:06:44;98944.88;;;2.33;53.21
550;BME280;20066;48.764;9.176;2023-04-04T03:09:14;98947.81;;;2.32;52.84
550;BME280;20066;48.764;9.176;2023-04-04T03:11:43;98942.22;;;1.46;54.87
550;BME280;20066;48.764;9.176;2023-04-04T03:14:11;98950.34;;;1.80;54.49
550;BME280;20066;48.764;9.176;2023-04-04T03:16:38;98941.53;;;1.32;55.49
550;BME280;20066;48.764;9.176;2023-04-04T03:19:07;98941.66;;;1.27;56.54
550;BME280;20066;48.764;9.176;2023-04-04T03:21:35;98942.09;;;1.82;55.36
550;BME280;20066;48.764;9.176;2023-04-04T03:24:03;98941.03;;;2.00;53.97
550;BME280;20066;48.764;9.176;2023-04-04T03:26:32;98941.91;;;1.47;55.55
550;BME280;20066;48.764;9.176;2023-04-04T03:29:00;98942.00;;;1.34;56.18
550;BME280;20066;48.764;9.176;2023-04-04T03:31:29;98944.16;;;1.32;56.79
550;BME280;20066;48.764;9.176;2023-04-04T03:33:58;98941.38;;;1.59;54.95
550;BME280;20066;48.764;9.176;2023-04-04T03:36:26;98944.16;;;2.02;54.28
550;BME280;20066;48.764;9.176;2023-04-04T03:38:54;98943.88;;;2.12;53.36
550;BME280;20066;48.764;9.176;2023-04-04T03:41:21;98942.78;;;2.05;54.35
550;BME280;20066;48.764;9.176;2023-04-04T03:43:50;98938.00;;;2.41;52.53
550;BME280;20066;48.764;9.176;2023-04-04T03:46:18;98937.16;;;2.15;53.68
550;BME280;20066;48.764;9.176;2023-04-04T03:48:47;98941.72;;;2.31;53.01
550;BME280;20066;48.764;9.176;2023-04-04T03:51:21;98944.25;;;2.54;51.92
550;BME280;20066;48.764;9.176;2023-04-04T03:53:49;98944.97;;;1.63;54.27
550;BME280;20066;48.764;9.176;2023-04-04T03:56:17;98941.69;;;2.06;53.05
550;BME280;20066;48.764;9.176;2023-04-04T03:58:45;98943.16;;;1.19;55.37
550;BME280;20066;48.764;9.176;2023-04-04T04:01:14;98940.66;;;1.84;55.06
550;BME280;20066;48.764;9.176;2023-04-04T04:03:42;98938.56;;;2.04;54.41
550;BME280;20066;48.764;9.176;2023-04-04T04:06:10;98941.63;;;1.88;54.72
550;BME280;20066;48.764;9.176;2023-04-04T04:08:38;98940.91;;;2.05;53.85
550;BME280;20066;48.764;9.176;2023-04-04T04:11:06;98945.13;;;2.06;53.90
550;BME280;20066;48.764;9.176;2023-04-04T04:13:34;98944.53;;;2.18;53.35
550;BME280;20066;48.764;9.176;2023-04-04T04:16:03;98939.41;;;2.38;52.32
550;BME280;20066;48.764;9.176;2023-04-04T04:18:32;98940.31;;;2.25;52.57
550;BME280;20066;48.764;9.176;2023-04-04T04:21:00;98945.59;;;2.17;53.79
550;BME280;20066;48.764;9.176;2023-04-04T04:23:29;98941.94;;;2.52;51.84
550;BME280;20066;48.764;9.176;2023-04-04T04:25:57;98939.94;;;1.62;54.54
550;BME280;20066;48.764;9.176;2023-04-04T04:28:25;98940.34;;;1.46;55.81
550;BME280;20066;48.764;9.176;2023-04-04T04:31:03;98948.38;;;1.33;56.14
550;BME280;20066;48.764;9.176;2023-04-04T04:33:33;98938.06;;;2.02;54.11
550;BME280;20066;48.764;9.176;2023-04-04T04:36:02;98948.59;;;2.32;54.13
550;BME280;20066;48.764;9.176;2023-04-04T04:38:30;98945.44;;;2.22;53.52
550;BME280;20066;48.764;9.176;2023-04-04T04:40:59;98946.13;;;2.53;53.36
550;BME280;20066;48.764;9.176;2023-04-04T04:43:28;98946.22;;;2.22;53.92
550;BME280;20066;48.764;9.176;2023-04-04T04:45:55;98947.22;;;2.44;53.35
550;BME280;20066;48.764;9.176;2023-04-04T04:48:23;98948.44;;;2.37;53.25
550;BME280;20066;48.764;9.176;2023-04-04T04:50:52;98949.66;;;2.06;54.39
550;BME280;20066;48.764;9.176;2023-04-04T04:53:20;98949.38;;;2.24;53.20
550;BME280;20066;48.764;9.176;2023-04-04T04:55:48;98950.66;;;2.61;52.07
550;BME280;20066;48.764;9.176;2023-04-04T04:58:17;98957.72;;;2.83;51.56
550;BME280;20066;48.764;9.176;2023-04-04T05:00:48;98957.88;;;2.87;51.89
550;BME280;20066;48.764;9.176;2023-04-04T05:03:16;98953.16;;;3.01;51.52
550;BME280;20066;48.764;9.176;2023-04-04T05:05:44;98954.09;;;2.36;51.94
550;BME280;20066;48.764;9.176;2023-04-04T05:08:13;98956.91;;;2.57;52.45
550;BME280;20066;48.764;9.176;2023-04-04T05:10:42;98957.06;;;2.43;51.75
550;BME280;20066;48.764;9.176;2023-04-04T05:13:10;98955.00;;;2.31;52.29
550;BME280;20066;48.764;9.176;2023-04-04T05:15:39;98961.59;;;2.68;51.50
550;BME280;20066;48.764;9.176;2023-04-04T05:18:07;98962.69;;;2.85;50.61
550;BME280;20066;48.764;9.176;2023-04-04T05:20:35;98960.50;;;2.52;50.68
550;BME280;20066;48.764;9.176;2023-04-04T05:23:03;98954.25;;;2.57;51.47
550;BME280;20066;48.764;9.176;2023-04-04T05:25:32;98955.19;;;2.44;51.49
550;BME280;20066;48.764;9.176;2023-04-04T05:28:00;98957.72;;;2.74;51.83
550;BME280;20066;48.764;9.176;2023-04-04T05:30:29;98953.31;;;2.44;51.19
550;BME280;20066;48.764;9.176;2023-04-04T05:32:57;98959.25;;;2.50;51.38
550;BME280;20066;48.764;9.176;2023-04-04T05:35:25;98961.59;;;2.86;51.03
550;BME280;20066;48.764;9.176;2023-04-04T05:37:53;98960.97;;;3.14;49.87
550;BME280;20066;48.764;9.176;2023-04-04T05:40:20;98968.31;;;3.26;49.48
550;BME280;20066;48.764;9.176;2023-04-04T05:42:54;98967.53;;;2.57;50.45
550;BME280;20066;48.764;9.176;2023-04-04T05:45:22;98964.25;;;2.94;50.06
550;BME280;20066;48.764;9.176;2023-04-04T05:47:50;98966.13;;;2.76;50.35
550;BME280;20066;48.764;9.176;2023-04-04T05:50:18;98973.97;;;2.90;50.16
550;BME280;20066;48.764;9.176;2023-04-04T05:52:45;98972.84;;;3.08;49.83
550;BME280;20066;48.764;9.176;2023-04-04T05:55:13;98977.53;;;3.37;49.29
550;BME280;20066;48.764;9.176;2023-04-04T05:57:46;98976.16;;;3.69;48.60
550;BME280;20066;48.764;9.176;2023-04-04T06:00:17;98977.69;;;3.79;47.90
550;BME280;20066;48.764;9.176;2023-04-04T06:02:45;98975.44;;;3.51;47.80
550;BME280;20066;48.764;9.176;2023-04-04T06:05:13;98970.72;;;3.57;48.45
550;BME280;20066;48.764;9.176;2023-04-04T06:07:41;98976.16;;;2.88;49.88
550;BME280;20066;48.764;9.176;2023-04-04T06:10:09;98978.81;;;3.05;50.23
550;BME280;20066;48.764;9.176;2023-04-04T06:12:37;98976.31;;;2.83;49.28
550;BME280;20066;48.764;9.176;2023-04-04T06:15:06;98970.66;;;3.19;48.70
550;BME280;20066;48.764;9.176;2023-04-04T06:17:35;98966.50;;;3.56;48.82
550;BME280;20066;48.764;9.176;2023-04-04T06:20:04;98969.09;;;3.18;49.04
550;BME280;20066;48.764;9.176;2023-04-04T06:22:34;98966.41;;;3.44;48.24
550;BME280;20066;48.764;9.176;2023-04-04T06:25:02;98966.31;;;3.14;49.05
550;BME280;20066;48.764;9.176;2023-04-04T06:27:30;98961.28;;;3.13;48.76
550;BME280;20066;48.764;9.176;2023-04-04T06:29:58;98965.94;;;3.25;48.72
550;BME280;20066;48.764;9.176;2023-04-04T06:32:25;98967.53;;;3.26;48.46
550;BME280;20066;48.764;9.176;2023-04-04T06:34:55;98964.50;;;3.53;47.68
550;BME280;20066;48.764;9.176;2023-04-04T06:37:23;98963.03;;;3.73;46.62
550;BME280;20066;48.764;9.176;2023-04-04T06:39:50;98963.28;;;3.88;47.26
550;BME280;20066;48.764;9.176;2023-04-04T06:42:19;98969.44;;;4.10;46.66
550;BME280;20066;48.764;9.176;2023-04-04T06:44:47;98959.75;;;3.76;47.65
550;BME280;20066;48.764;9.176;2023-04-04T06:47:15;98966.91;;;2.94;48.08
550;BME280;20066;48.764;9.176;2023-04-04T06:49:43;98957.97;;;3.33;48.21
550;BME280;20066;48.764;9.176;2023-04-04T06:52:12;98967.59;;;3.64;47.58
550;BME280;20066;48.764;9.176;2023-04-04T06:54:40;98966.63;;;3.04;48.19
550;BME280;20066;48.764;9.176;2023-04-04T06:57:08;98964.69;;;3.31;47.52
550;BME280;20066;48.764;9.176;2023-04-04T06:59:36;98959.88;;;3.71;46.74
550;BME280;20066;48.764;9.176;2023-04-04T07:02:03;98961.16;;;3.73;45.74
550;BME280;20066;48.764;9.176;2023-04-04T07:04:31;98955.03;;;3.73;46.18
550;BME280;20066;48.764;9.176;2023-04-04T07:07:00;98952.97;;;3.32;46.56
550;BME280;20066;48.764;9.176;2023-04-04T07:09:29;98952.44;;;3.47;46.34
550;BME280;20066;48.764;9.176;2023-04-04T07:11:57;98948.41;;;3.41;46.26
550;BME280;20066;48.764;9.176;2023-04-04T07:14:25;98956.44;;;3.70;46.04
550;BME280;20066;48.764;9.176;2023-04-04T07:16:53;98953.88;;;3.53;45.80
550;BME280;20066;48.764;9.176;2023-04-04T07:19:21;98951.66;;;3.46;45.00
550;BME280;20066;48.764;9.176;2023-04-04T07:21:54;98961.13;;;2.92;46.41
550;BME280;20066;48.764;9.176;2023-04-04T07:24:22;98959.94;;;3.53;45.17
550;BME280;20066;48.764;9.176;2023-04-04T07:26:51;98960.47;;;3.85;43.47
550;BME280;20066;48.764;9.176;2023-04-04T07:29:19;98957.41;;;4.04;44.77
550;BME280;20066;48.764;9.176;2023-04-04T07:31:47;98964.06;;;3.42;44.63
550;BME280;20066;48.764;9.176;2023-04-04T07:34:15;98962.06;;;2.79;45.24
550;BME280;20066;48.764;9.176;2023-04-04T07:36:43;98961.41;;;3.25;44.67
550;BME280;20066;48.764;9.176;2023-04-04T07:39:11;98956.88;;;3.34;45.83
550;BME280;20066;48.764;9.176;2023-04-04T07:41:38;98958.19;;;3.66;44.23
550;BME280;20066;48.764;9.176;2023-04-04T07:44:08;98960.38;;;4.31;42.35
550;BME280;20066;48.764;9.176;2023-04-04T07:46:37;98961.09;;;5.12;41.76
550;BME280;20066;48.764;9.176;2023-04-04T07:49:04;98963.72;;;8.25;36.53
550;BME280;20066;48.764;9.176;2023-04-04T07:51:33;98972.78;;;10.95;30.68
550;BME280;20066;48.764;9.176;2023-04-04T07:54:01;98960.84;;;6.83;36.65
550;BME280;20066;48.764;9.176;2023-04-04T07:56:28;98959.69;;;9.04;34.69
550;BME280;20066;48.764;9.176;2023-04-04T07:58:56;98965.47;;;9.06;34.00
550;BME280;20066;48.764;9.176;2023-04-04T08:01:25;98963.75;;;7.77;34.10
550;BME280;20066;48.764;9.176;2023-04-04T08:03:53;98966.94;;;11.23;31.24
550;BME280;20066;48.764;9.176;2023-04-04T08:06:22;98950.94;;;12.94;28.01
550;BME280;20066;48.764;9.176;2023-04-04T08:08:50;98964.25;;;12.59;27.41
550;BME280;20066;48.764;9.176;2023-04-04T08:11:18;98956.53;;;10.88;29.36
550;BME280;20066;48.764;9.176;2023-04-04T08:13:46;98957.94;;;9.77;30.97
550;BME280;20066;48.764;9.176;2023-04-04T08:16:14;98961.38;;;11.83;28.98
550;BME280;20066;48.764;9.176;2023-04-04T08:18:44;98959.59;;;13.42;27.02
550;BME280;20066;48.764;9.176;2023-04-04T08:21:12;98959.16;;;13.26;27.56
550;BME280;20066;48.764;9.176;2023-04-04T08:23:40;98961.88;;;14.79;25.09
550;BME280;20066;48.764;9.176;2023-04-04T08:26:08;98955.19;;;16.26;23.50
550;BME280;20066;48.764;9.176;2023-04-04T08:28:37;98946.66;;;19.64;20.71
550;BME280;20066;48.764;9.176;2023-04-04T08:31:05;98951.94;;;14.33;24.01
550;BME280;20066;48.764;9.176;2023-04-04T08:33:33;98948.06;;;11.97;27.84
550;BME280;20066;48.764;9.176;2023-04-04T08:36:14;98952.72;;;14.26;25.48
550;BME280;20066;48.764;9.176;2023-04-04T08:38:42;98950.28;;;13.26;25.98
550;BME280;20066;48.764;9.176;2023-04-04T08:41:11;98953.28;;;15.74;25.02
550;BME280;20066;48.764;9.176;2023-04-04T08:43:40;98950.56;;;12.99;26.33
550;BME280;20066;48.764;9.176;2023-04-04T08:46:12;98949.31;;;6.95;34.73
550;BME280;20066;48.764;9.176;2023-04-04T08:48:43;98945.31;;;8.23;33.69
550;BME280;20066;48.764;9.176;2023-04-04T08:51:14;98954.22;;;10.07;28.91
550;BME280;20066;48.764;9.176;2023-04-04T08:53:42;98943.88;;;7.47;33.61
550;BME280;20066;48.764;9.176;2023-04-04T08:56:10;98946.84;;;8.75;32.01
550;BME280;20066;48.764;9.176;2023-04-04T08:58:38;98956.94;;;8.81;31.48
550;BME280;20066;48.764;9.176;2023-04-04T09:01:06;98945.47;;;9.23;31.61
550;BME280;20066;48.764;9.176;2023-04-04T09:03:35;98946.47;;;10.25;29.24
550;BME280;20066;48.764;9.176;2023-04-04T09:06:04;98948.09;;;10.60;31.42
550;BME280;20066;48.764;9.176;2023-04-04T09:08:34;98948.69;;;11.43;28.20
550;BME280;20066;48.764;9.176;2023-04-04T09:11:03;98954.47;;;12.36;27.71
550;BME280;20066;48.764;9.176;2023-04-04T09:13:31;98956.81;;;13.14;26.66
550;BME280;20066;48.764;9.176;2023-04-04T09:15:59;98959.66;;;9.88;28.91
550;BME280;20066;48.764;9.176;2023-04-04T09:18:27;98957.28;;;13.48;26.61
550;BME280;20066;48.764;9.176;2023-04-04T09:20:55;98941.44;;;11.91;27.97
550;BME280;20066;48.764;9.176;2023-04-04T09:23:23;98952.72;;;10.10;30.18
550;BME280;20066;48.764;9.176;2023-04-04T09:25:53;98949.69;;;7.21;34.73
550;BME280;20066;48.764;9.176;2023-04-04T09:28:24;98955.88;;;9.24;32.09
550;BME280;20066;48.764;9.176;2023-04-04T09:30:52;98945.84;;;10.95;29.95
550;BME280;20066;48.764;9.176;2023-04-04T09:33:21;98951.44;;;12.42;27.46
550;BME280;20066;48.764;9.176;2023-04-04T09:35:53;98956.19;;;9.65;29.55
550;BME280;20066;48.764;9.176;2023-04-04T09:38:22;98945.34;;;11.97;27.77
550;BME280;20066;48.764;9.176;2023-04-04T09:40:53;98951.19;;;8.64;31.77
550;BME280;20066;48.764;9.176;2023-04-04T09:43:22;98946.88;;;9.36;31.49
550;BME280;20066;48.764;9.176;2023-04-04T09:45:53;98944.59;;;10.06;29.54
550;BME280;20066;48.764;9.176;2023-04-04T09:48:25;98944.75;;;10.70;30.04
550;BME280;20066;48.764;9.176;2023-04-04T09:50:53;98951.19;;;10.62;28.63
550;BME280;20066;48.764;9.176;2023-04-04T09:53:21;98954.66;;;12.07;28.29
550;BME280;20066;48.764;9.176;2023-04-04T09:55:50;98952.00;;;12.79;26.17
550;BME280;20066;48.764;9.176;2023-04-04T09:58:23;98950.56;;;10.42;29.62
550;BME280;20066;48.764;9.176;2023-04-04T10:00:52;98951.59;;;9.88;30.12
550;BME280;20066;48.764;9.176;2023-04-04T10:03:36;98944.78;;;11.77;28.42
550;BME280;20066;48.764;9.176;2023-04-04T10:06:06;98944.00;;;12.24;26.75
550;BME280;20066;48.764;9.176;2023-04-04T10:08:38;98946.91;;;8.98;31.46
550;BME280;20066;48.764;9.176;2023-04-04T10:11:07;98938.84;;;10.57;29.42
550;BME280;20066;48.764;9.176;2023-04-04T10:13:39;98945.72;;;10.55;29.84
550;BME280;20066;48.764;9.176;2023-04-04T10:16:10;98936.59;;;11.26;27.31
550;BME280;20066;48.764;9.176;2023-04-04T10:18:38;98933.94;;;8.45;32.61
550;BME280;20066;48.764;9.176;2023-04-04T10:21:07;98951.00;;;9.76;29.79
550;BME280;20066;48.764;9.176;2023-04-04T10:23:40;98940.59;;;10.76;28.97
550;BME280;20066;48.764;9.176;2023-04-04T10:26:08;98933.63;;;10.41;30.38
550;BME280;20066;48.764;9.176;2023-04-04T10:28:40;98942.41;;;8.67;32.00
550;BME280;20066;48.764;9.176;2023-04-04T10:31:16;98924.88;;;11.92;27.81
550;BME280;20066;48.764;9.176;2023-04-04T10:33:51;98923.34;;;10.47;29.15
550;BME280;20066;48.764;9.176;2023-04-04T10:36:24;98925.81;;;11.26;28.08
550;BME280;20066;48.764;9.176;2023-04-04T10:39:01;98922.28;;;10.85;28.78
550;BME280;20066;48.764;9.176;2023-04-04T10:41:31;98921.91;;;9.55;30.06
550;BME280;20066;48.764;9.176;2023-04-04T10:44:10;98928.34;;;11.49;28.23
550;BME280;20066;48.764;9.176;2023-04-04T10:46:41;98927.88;;;10.43;28.71
550;BME280;20066;48.764;9.176;2023-04-04T10:49:10;98921.09;;;10.00;29.33
550;BME280;20066;48.764;9.176;2023-04-04T10:51:39;98921.56;;;9.14;30.98
550;BME280;20066;48.764;9.176;2023-04-04T10:54:21;98919.19;;;12.01;27.24
550;BME280;20066;48.764;9.176;2023-04-04T10:56:49;98934.78;;;11.78;27.33
550;BME280;20066;48.764;9.176;2023-04-04T10:59:19;98916.56;;;10.30;29.29
550;BME280;20066;48.764;9.176;2023-04-04T11:01:49;98925.25;;;8.52;31.15
550;BME280;20066;48.764;9.176;2023-04-04T11:04:18;98904.78;;;9.89;29.77
550;BME280;20066;48.764;9.176;2023-04-04T11:07:10;98895.59;;;11.87;27.76
550;BME280;20066;48.764;9.176;2023-04-04T11:09:54;98907.59;;;11.97;27.55
550;BME280;20066;48.764;9.176;2023-04-04T11:12:31;98913.06;;;12.84;26.30
550;BME280;20066;48.764;9.176;2023-04-04T11:15:10;98907.38;;;10.31;28.10
550;BME280;20066;48.764;9.176;2023-04-04T11:17:54;98913.56;;;11.32;26.95
550;BME280;20066;48.764;9.176;2023-04-04T11:20:27;98908.75;;;10.48;28.48
550;BME280;20066;48.764;9.176;2023-04-04T11:23:03;98901.03;;;11.10;26.83
550;BME280;20066;48.764;9.176;2023-04-04T11:25:33;98909.03;;;13.93;24.59
550;BME280;20066;48.764;9.176;2023-04-04T11:28:27;98907.44;;;11.35;27.47
550;BME280;20066;48.764;9.176;2023-04-04T11:31:24;98902.81;;;13.32;26.65
550;BME280;20066;48.764;9.176;2023-04-04T11:33:55;98913.31;;;14.04;24.90
550;BME280;20066;48.764;9.176;2023-04-04T11:36:52;98902.84;;;13.78;24.73
550;BME280;20066;48.764;9.176;2023-04-04T11:39:23;98898.91;;;14.46;24.88
550;BME280;20066;48.764;9.176;2023-04-04T11:41:52;98907.09;;;9.00;30.07
550;BME280;20066;48.764;9.176;2023-04-04T11:44:22;98889.34;;;12.38;25.84
550;BME280;20066;48.764;9.176;2023-04-04T11:46:55;98890.28;;;9.94;28.74
550;BME280;20066;48.764;9.176;2023-04-04T11:49:28;98892.34;;;10.04;29.48
550;BME280;20066;48.764;9.176;2023-04-04T11:51:57;98890.94;;;11.84;27.09
550;BME280;20066;48.764;9.176;2023-04-04T11:54:25;98893.38;;;10.78;27.72
550;BME280;20066;48.764;9.176;2023-04-04T11:56:53;98902.06;;;13.42;25.45
550;BME280;20066;48.764;9.176;2023-04-04T11:59:21;98896.25;;;13.26;25.52
550;BME280;20066;48.764;9.176;2023-04-04T12:01:49;98881.72;;;11.41;26.41
550;BME280;20066;48.764;9.176;2023-04-04T12:04:19;98883.44;;;12.15;27.66
550;BME280;20066;48.764;9.176;2023-04-04T12:06:49;98882.34;;;13.17;26.21
550;BME280;20066;48.764;9.176;2023-04-04T12:09:18;98887.31;;;13.00;25.64
550;BME280;20066;48.764;9.176;2023-04-04T12:11:46;98880.44;;;13.77;24.69
550;BME280;20066;48.764;9.176;2023-04-04T12:14:15;98874.53;;;14.53;24.64
550;BME280;20066;48.764;9.176;2023-04-04T12:16:44;98870.72;;;12.15;25.65
550;BME280;20066;48.764;9.176;2023-04-04T12:19:12;98863.06;;;13.39;25.08
550;BME280;20066;48.764;9.176;2023-04-04T12:21:41;98878.06;;;14.33;24.46
550;BME280;20066;48.764;9.176;2023-04-04T12:24:09;98882.22;;;12.81;25.19
550;BME280;20066;48.764;9.176;2023-04-04T12:26:39;98869.22;;;10.52;28.42
550;BME280;20066;48.764;9.176;2023-04-04T12:29:07;98868.06;;;13.30;25.37
550;BME280;20066;48.764;9.176;2023-04-04T12:31:37;98865.75;;;11.22;26.44
550;BME280;20066;48.764;9.176;2023-04-04T12:34:06;98872.50;;;10.12;28.98
550;BME280;20066;48.764;9.176;2023-04-04T12:36:36;98871.19;;;13.46;25.39
550;BME280;20066;48.764;9.176;2023-04-04T12:39:07;98873.47;;;13.05;26.16
550;BME280;20066;48.764;9.176;2023-04-04T12:41:46;98873.88;;;13.25;24.96
550;BME280;20066;48.764;9.176;2023-04-04T12:44:25;98861.50;;;13.95;24.59
550;BME280;20066;48.764;9.176;2023-04-04T12:46:56;98855.53;;;12.62;25.79
550;BME280;20066;48.764;9.176;2023-04-04T12:49:29;98854.97;;;13.36;24.43
550;BME280;20066;48.764;9.176;2023-04-04T12:51:58;98853.63;;;11.02;27.43
550;BME280;20066;48.764;9.176;2023-04-04T12:54:34;98839.84;;;12.02;27.10
550;BME280;20066;48.764;9.176;2023-04-04T12:57:03;98848.16;;;12.52;27.13
550;BME280;20066;48.764;9.176;2023-04-04T12:59:34;98841.84;;;13.38;25.41
550;BME280;20066;48.764;9.176;2023-04-04T13:02:04;98842.16;;;14.00;24.72
550;BME280;20066;48.764;9.176;2023-04-04T13:04:34;98843.38;;;13.88;24.25
550;BME280;20066;48.764;9.176;2023-04-04T13:07:03;98834.44;;;12.92;25.93
550;BME280;20066;48.764;9.176;2023-04-04T13:09:32;98824.78;;;14.01;25.03
550;BME280;20066;48.764;9.176;2023-04-04T13:12:03;98826.38;;;12.96;26.11
550;BME280;20066;48.764;9.176;2023-04-04T13:14:56;98829.38;;;12.80;26.47
550;BME280;20066;48.764;9.176;2023-04-04T13:17:24;98828.31;;;13.73;24.88
550;BME280;20066;48.764;9.176;2023-04-04T13:19:52;98820.53;;;14.11;25.24
550;BME280;20066;48.764;9.176;2023-04-04T13:22:20;98828.50;;;12.48;26.58
550;BME280;20066;48.764;9.176;2023-04-04T13:24:49;98827.50;;;11.46;27.86
550;BME280;20066;48.764;9.176;2023-04-04T13:27:17;98824.22;;;10.82;28.42
550;BME280;20066;48.764;9.176;2023-04-04T13:29:45;98818.91;;;12.68;26.17
550;BME280;20066;48.764;9.176;2023-04-04T13:32:12;98817.50;;;13.38;25.97
550;BME280;20066;48.764;9.176;2023-04-04T13:34:40;98820.00;;;12.42;26.76
550;BME280;20066;48.764;9.176;2023-04-04T13:37:08;98819.81;;;13.11;26.30
550;BME280;20066;48.764;9.176;2023-04-04T13:39:36;98814.25;;;11.75;27.88
550;BME280;20066;48.764;9.176;2023-04-04T13:42:05;98802.91;;;12.13;26.78